createdAt,value
2022-09-23T00:02:03.806Z,10.80
2022-09-23T00:04:36.035Z,9.20
2022-09-23T00:07:08.187Z,10.40
2022-09-23T00:09:40.380Z,10.30
2022-09-23T00:12:12.954Z,9.70
2022-09-23T00:14:45.091Z,10.50
2022-09-23T00:17:17.176Z,11.40
2022-09-23T00:19:49.454Z,10.40
2022-09-23T00:22:21.499Z,9.90
2022-09-23T00:24:53.695Z,8.90
2022-09-23T00:27:26.681Z,9.50
2022-09-23T00:29:58.695Z,9.00
2022-09-23T00:32:30.740Z,12.00
2022-09-23T00:35:04.255Z,9.10
2022-09-23T00:37:37.357Z,9.80
2022-09-23T00:40:13.394Z,12.90
2022-09-23T00:42:52.244Z,14.00
2022-09-23T00:45:24.908Z,9.70
2022-09-23T00:48:01.489Z,9.50
2022-09-23T00:53:11.524Z,10.20
2022-09-23T00:55:47.651Z,9.00
2022-09-23T00:58:24.751Z,11.00
2022-09-23T01:00:59.561Z,9.80
2022-09-23T01:03:32.192Z,11.60
2022-09-23T01:06:04.790Z,10.00
2022-09-23T01:08:37.813Z,10.80
2022-09-23T01:11:30.529Z,10.10
2022-09-23T01:14:26.377Z,11.50
2022-09-23T01:17:05.219Z,10.50
2022-09-23T01:20:03.594Z,10.20
2022-09-23T01:22:43.130Z,10.00
2022-09-23T01:25:31.762Z,11.10
2022-09-23T01:28:26.676Z,9.80
2022-09-23T01:31:06.721Z,10.80
2022-09-23T01:33:48.326Z,13.90
2022-09-23T01:36:25.098Z,11.50
2022-09-23T01:39:02.327Z,11.70
2022-09-23T01:41:55.574Z,15.10
2022-09-23T01:44:36.350Z,11.10
2022-09-23T01:47:14.353Z,12.50
2022-09-23T01:49:51.945Z,10.70
2022-09-23T01:52:28.715Z,10.30
2022-09-23T01:55:05.257Z,11.60
2022-09-23T01:57:41.763Z,13.30
2022-09-23T02:00:17.718Z,10.80
2022-09-23T02:02:53.784Z,12.60
2022-09-23T02:05:30.931Z,10.50
2022-09-23T02:10:42.173Z,10.00
2022-09-23T02:13:20.621Z,11.40
2022-09-23T02:15:56.312Z,11.90
2022-09-23T02:18:32.747Z,10.80
2022-09-23T02:21:09.926Z,11.70
2022-09-23T02:23:47.082Z,13.80
2022-09-23T02:26:23.998Z,13.70
2022-09-23T02:31:41.168Z,10.70
2022-09-23T02:34:22.231Z,12.90
2022-09-23T02:37:06.705Z,11.60
2022-09-23T02:39:49.426Z,11.90
2022-09-23T02:42:26.198Z,12.40
2022-09-23T02:47:33.557Z,11.70
2022-09-23T02:50:06.863Z,12.80
2022-09-23T02:52:39.168Z,12.60
2022-09-23T02:55:16.115Z,12.80
2022-09-23T03:00:19.501Z,11.30
2022-09-23T03:03:17.349Z,10.80
2022-09-23T03:05:55.519Z,10.70
2022-09-23T03:08:43.044Z,13.00
2022-09-23T03:11:17.643Z,12.60
2022-09-23T03:14:06.765Z,11.80
2022-09-23T03:16:46.498Z,13.70
2022-09-23T03:19:28.681Z,14.40
2022-09-23T03:22:07.231Z,10.70
2022-09-23T03:24:42.944Z,11.30
2022-09-23T03:27:19.665Z,11.30
2022-09-23T03:29:54.593Z,11.70
2022-09-23T03:32:30.163Z,14.70
2022-09-23T03:35:04.909Z,12.40
2022-09-23T03:37:41.288Z,10.90
2022-09-23T03:40:19.463Z,12.30
2022-09-23T03:42:53.490Z,12.80
2022-09-23T03:45:35.475Z,13.70
2022-09-23T03:48:07.969Z,11.60
2022-09-23T03:50:40.188Z,9.70
2022-09-23T03:53:14.380Z,14.30
2022-09-23T03:55:47.259Z,13.30
2022-09-23T03:58:19.292Z,11.40
2022-09-23T04:00:54.823Z,12.60
2022-09-23T04:03:28.252Z,11.80
2022-09-23T04:06:00.281Z,10.50
2022-09-23T04:08:32.362Z,11.60
2022-09-23T04:11:05.501Z,10.00
2022-09-23T04:13:37.851Z,13.00
2022-09-23T04:16:10.233Z,13.10
2022-09-23T04:18:42.355Z,15.40
2022-09-23T04:21:14.531Z,14.20
2022-09-23T04:23:47.185Z,14.00
2022-09-23T04:26:19.448Z,15.20
2022-09-23T04:28:51.518Z,12.90
2022-09-23T04:31:23.957Z,13.90
2022-09-23T04:33:57.175Z,13.10
2022-09-23T04:36:30.445Z,16.10
2022-09-23T04:39:03.821Z,19.10
2022-09-23T04:41:36.789Z,18.00
2022-09-23T04:44:09.103Z,16.60
2022-09-23T04:46:41.685Z,16.10
2022-09-23T04:49:14.252Z,16.70
2022-09-23T04:51:46.332Z,14.80
2022-09-23T04:54:19.078Z,18.80
2022-09-23T04:56:51.089Z,14.00
2022-09-23T04:59:23.853Z,17.90
2022-09-23T05:01:56.039Z,16.70
2022-09-23T05:04:28.089Z,21.20
2022-09-23T05:07:03.240Z,41.50
2022-09-23T05:09:35.881Z,16.70
2022-09-23T05:12:08.639Z,18.10
2022-09-23T05:14:40.672Z,19.70
2022-09-23T05:17:13.052Z,34.60
2022-09-23T05:19:45.137Z,26.20
2022-09-23T05:22:17.148Z,37.70
2022-09-23T05:24:49.197Z,23.50
2022-09-23T05:27:21.402Z,22.50
2022-09-23T05:29:53.383Z,15.40
2022-09-23T05:32:26.458Z,15.70
2022-09-23T05:34:58.924Z,13.30
2022-09-23T05:37:33.210Z,21.20
2022-09-23T05:40:06.075Z,20.60
2022-09-23T05:42:38.278Z,14.80
2022-09-23T05:45:11.455Z,16.20
2022-09-23T05:47:44.109Z,16.70
2022-09-23T05:50:16.575Z,15.50
2022-09-23T05:52:48.650Z,13.90
2022-09-23T05:55:20.794Z,14.10
2022-09-23T05:57:52.835Z,13.50
2022-09-23T06:00:26.106Z,15.50
2022-09-23T06:02:58.368Z,14.10
2022-09-23T06:05:31.576Z,16.30
2022-09-23T06:08:04.046Z,11.90
2022-09-23T06:10:39.541Z,15.90
2022-09-23T06:13:12.915Z,9.70
2022-09-23T06:15:45.859Z,14.10
2022-09-23T06:18:18.718Z,10.20
2022-09-23T06:20:51.070Z,9.70
2022-09-23T06:23:26.343Z,12.60
2022-09-23T06:26:03.061Z,9.50
2022-09-23T06:28:36.623Z,9.90
2022-09-23T06:31:13.613Z,11.10
2022-09-23T06:33:53.001Z,11.00
2022-09-23T06:36:40.642Z,11.20
2022-09-23T06:39:16.558Z,10.60
2022-09-23T06:41:48.615Z,11.90
2022-09-23T06:44:21.376Z,9.40
2022-09-23T06:46:53.549Z,11.40
2022-09-23T06:49:26.691Z,12.10
2022-09-23T06:51:58.750Z,14.70
2022-09-23T06:54:31.514Z,10.70
2022-09-23T06:57:03.760Z,9.70
2022-09-23T06:59:36.005Z,10.20
2022-09-23T07:02:08.811Z,9.10
2022-09-23T07:04:41.394Z,11.40
2022-09-23T07:07:14.260Z,11.30
2022-09-23T07:09:46.444Z,10.20
2022-09-23T07:12:18.676Z,13.10
2022-09-23T07:14:51.057Z,12.10
2022-09-23T07:17:24.317Z,12.10
2022-09-23T07:19:56.392Z,14.60
2022-09-23T07:22:28.866Z,13.60
2022-09-23T07:25:00.935Z,12.20
2022-09-23T07:27:33.566Z,15.00
2022-09-23T07:30:08.704Z,11.50
2022-09-23T07:32:48.670Z,14.20
2022-09-23T07:35:21.554Z,12.90
2022-09-23T07:37:54.277Z,17.90
2022-09-23T07:40:26.571Z,11.10
2022-09-23T07:42:59.695Z,8.80
2022-09-23T07:45:33.139Z,7.10
2022-09-23T07:48:05.836Z,7.70
2022-09-23T07:50:40.088Z,8.40
2022-09-23T07:53:13.670Z,9.50
2022-09-23T07:55:52.459Z,8.60
2022-09-23T07:58:25.758Z,8.10
2022-09-23T08:01:02.650Z,8.20
2022-09-23T08:03:35.232Z,8.40
2022-09-23T08:06:10.361Z,7.50
2022-09-23T08:08:44.632Z,9.60
2022-09-23T08:11:16.761Z,7.10
2022-09-23T08:13:48.914Z,7.10
2022-09-23T08:16:21.379Z,9.20
2022-09-23T08:18:53.755Z,8.20
2022-09-23T08:21:26.015Z,7.90
2022-09-23T08:23:58.690Z,7.50
2022-09-23T08:26:34.387Z,8.60
2022-09-23T08:29:09.881Z,8.50
2022-09-23T08:31:42.291Z,9.70
2022-09-23T08:34:14.976Z,7.60
2022-09-23T08:36:48.214Z,6.40
2022-09-23T08:39:22.998Z,7.30
2022-09-23T08:42:08.743Z,6.80
2022-09-23T08:44:49.416Z,6.60
2022-09-23T08:47:26.089Z,7.40
2022-09-23T08:50:04.199Z,8.50
2022-09-23T08:52:41.194Z,6.50
2022-09-23T08:55:16.055Z,7.60
2022-09-23T08:58:23.843Z,6.80
2022-09-23T09:01:04.384Z,6.70
2022-09-23T09:03:41.903Z,6.20
2022-09-23T09:06:20.015Z,6.70
2022-09-23T09:08:58.229Z,6.10
2022-09-23T09:11:36.928Z,7.10
2022-09-23T09:14:18.894Z,5.50
2022-09-23T09:17:00.649Z,4.80
2022-09-23T09:19:56.598Z,6.70
2022-09-23T09:22:51.015Z,7.20
2022-09-23T09:25:33.506Z,5.10
2022-09-23T09:28:15.878Z,6.70
2022-09-23T09:30:54.223Z,7.10
2022-09-23T09:33:32.401Z,4.40
2022-09-23T09:36:14.464Z,2.70
2022-09-23T09:38:46.470Z,2.40
2022-09-23T09:41:24.784Z,1.90
2022-09-23T09:43:59.418Z,1.80
2022-09-23T09:46:48.111Z,1.20
2022-09-23T09:49:30.232Z,0.90
2022-09-23T09:52:24.196Z,1.00
2022-09-23T09:55:00.661Z,0.70
2022-09-23T09:57:39.811Z,0.90
2022-09-23T10:00:43.082Z,0.90
2022-09-23T10:03:31.665Z,2.40
2022-09-23T10:06:17.459Z,0.90
2022-09-23T10:09:14.783Z,1.30
2022-09-23T10:12:11.607Z,1.60
2022-09-23T10:14:44.087Z,0.70
2022-09-23T10:17:21.382Z,2.00
2022-09-23T10:20:00.968Z,2.00
2022-09-23T10:22:37.477Z,2.00
2022-09-23T10:25:17.772Z,2.30
2022-09-23T10:27:49.921Z,2.70
2022-09-23T10:30:27.284Z,2.30
2022-09-23T10:32:59.506Z,2.20
2022-09-23T10:35:33.665Z,1.20
2022-09-23T10:38:05.926Z,0.80
2022-09-23T10:40:58.648Z,2.40
2022-09-23T10:43:59.874Z,1.90
2022-09-23T10:46:41.255Z,1.30
2022-09-23T10:49:56.982Z,2.90
2022-09-23T10:52:58.127Z,6.80
2022-09-23T10:55:45.084Z,2.70
2022-09-23T10:58:33.263Z,1.40
2022-09-23T11:01:17.184Z,2.10
2022-09-23T11:04:06.777Z,2.20
2022-09-23T11:06:54.050Z,1.20
2022-09-23T11:09:34.772Z,1.30
2022-09-23T11:12:18.882Z,1.20
2022-09-23T11:15:19.204Z,2.00
2022-09-23T11:18:18.911Z,2.00
2022-09-23T11:21:00.782Z,1.90
2022-09-23T11:23:48.477Z,1.50
2022-09-23T11:26:33.309Z,2.60
2022-09-23T11:29:42.692Z,2.00
2022-09-23T11:32:35.727Z,1.30
2022-09-23T11:35:19.483Z,1.20
2022-09-23T11:37:55.105Z,3.40
2022-09-23T11:40:33.719Z,1.60
2022-09-23T11:43:16.071Z,2.20
2022-09-23T11:45:53.098Z,0.90
2022-09-23T11:48:31.490Z,2.80
2022-09-23T11:51:08.190Z,1.90
2022-09-23T11:53:48.821Z,1.80
2022-09-23T11:56:35.066Z,1.90
2022-09-23T11:59:17.473Z,3.80
2022-09-23T12:01:55.099Z,1.80
2022-09-23T12:04:35.733Z,2.80
2022-09-23T12:07:14.969Z,1.60
2022-09-23T12:10:03.631Z,3.50
2022-09-23T12:12:42.966Z,1.60
2022-09-23T12:15:28.090Z,2.20
2022-09-23T12:18:23.593Z,2.90
2022-09-23T12:21:38.688Z,2.40
2022-09-23T12:24:27.982Z,1.60
2022-09-23T12:27:05.723Z,1.80
2022-09-23T12:29:41.050Z,1.30
2022-09-23T12:32:20.321Z,3.80
2022-09-23T12:34:53.924Z,1.10
2022-09-23T12:37:29.793Z,3.20
2022-09-23T12:40:19.146Z,1.90
2022-09-23T12:42:52.168Z,2.60
2022-09-23T12:45:41.763Z,3.30
2022-09-23T12:49:02.133Z,2.20
2022-09-23T12:51:35.677Z,2.20
2022-09-23T12:54:25.545Z,2.50
2022-09-23T12:57:05.540Z,2.60
2022-09-23T13:00:16.298Z,2.60
2022-09-23T13:03:17.253Z,4.30
2022-09-23T13:06:10.367Z,4.00
2022-09-23T13:08:44.039Z,3.50
2022-09-23T13:11:24.408Z,3.60
2022-09-23T13:14:00.703Z,2.70
2022-09-23T13:16:35.849Z,1.50
2022-09-23T13:19:28.445Z,3.60
2022-09-23T13:22:09.290Z,3.10
2022-09-23T13:24:45.621Z,1.90
2022-09-23T13:27:24.005Z,1.50
2022-09-23T13:30:00.028Z,2.30
2022-09-23T13:32:35.615Z,2.30
2022-09-23T13:35:17.958Z,2.50
2022-09-23T13:37:51.090Z,3.00
2022-09-23T13:40:28.614Z,1.90
2022-09-23T13:43:03.330Z,2.70
2022-09-23T13:45:43.371Z,4.90
2022-09-23T13:48:17.662Z,3.00
2022-09-23T13:50:53.431Z,2.80
2022-09-23T13:53:29.070Z,4.20
2022-09-23T13:56:07.342Z,3.00
2022-09-23T13:58:39.620Z,2.40
2022-09-23T14:01:22.545Z,1.90
2022-09-23T14:03:54.714Z,2.90
2022-09-23T14:06:28.400Z,2.10
2022-09-23T14:09:02.636Z,1.80
2022-09-23T14:11:37.424Z,2.10
2022-09-23T14:14:14.668Z,2.90
2022-09-23T14:16:49.761Z,2.50
2022-09-23T14:19:24.486Z,2.60
2022-09-23T14:21:57.662Z,2.30
2022-09-23T14:24:35.899Z,2.80
2022-09-23T14:27:33.814Z,2.20
2022-09-23T14:30:20.539Z,1.70
2022-09-23T14:32:53.831Z,3.60
2022-09-23T14:35:29.760Z,2.00
2022-09-23T14:38:19.335Z,1.60
2022-09-23T14:41:15.605Z,3.10
2022-09-23T14:43:53.067Z,2.20
2022-09-23T14:46:27.511Z,1.50
2022-09-23T14:49:05.797Z,3.20
2022-09-23T14:51:53.844Z,3.20
2022-09-23T14:54:45.220Z,2.10
2022-09-23T14:57:37.190Z,2.80
2022-09-23T15:00:18.663Z,1.70
2022-09-23T15:03:02.052Z,3.50
2022-09-23T15:05:45.693Z,3.10
2022-09-23T15:08:22.172Z,1.20
2022-09-23T15:10:55.219Z,2.70
2022-09-23T15:13:31.550Z,2.60
2022-09-23T15:16:05.754Z,2.90
2022-09-23T15:18:41.341Z,2.90
2022-09-23T15:21:16.535Z,1.40
2022-09-23T15:23:51.353Z,3.10
2022-09-23T15:26:25.877Z,2.80
2022-09-23T15:29:00.049Z,2.80
2022-09-23T15:31:33.105Z,2.70
2022-09-23T15:34:06.206Z,3.30
2022-09-23T15:36:38.787Z,7.50
2022-09-23T15:39:14.612Z,3.60
2022-09-23T15:41:47.319Z,2.00
2022-09-23T15:44:21.819Z,3.20
2022-09-23T15:46:56.039Z,4.50
2022-09-23T15:49:33.501Z,4.00
2022-09-23T15:52:09.801Z,3.60
2022-09-23T15:54:42.499Z,4.40
2022-09-23T15:57:14.661Z,4.30
2022-09-23T15:59:46.991Z,4.20
2022-09-23T16:02:25.007Z,3.40
2022-09-23T16:04:57.376Z,2.90
2022-09-23T16:07:29.782Z,6.30
2022-09-23T16:10:01.953Z,7.10
2022-09-23T16:12:34.734Z,2.80
2022-09-23T16:15:12.197Z,4.50
2022-09-23T16:17:45.524Z,3.00
2022-09-23T16:20:18.857Z,4.10
2022-09-23T16:22:57.532Z,3.20
2022-09-23T16:25:32.025Z,4.40
2022-09-23T16:28:05.150Z,5.00
2022-09-23T16:30:37.897Z,5.80
2022-09-23T16:33:10.055Z,4.20
2022-09-23T16:35:42.391Z,5.80
2022-09-23T16:38:14.821Z,6.90
2022-09-23T16:40:47.409Z,4.80
2022-09-23T16:43:19.974Z,5.00
2022-09-23T16:45:52.227Z,4.40
2022-09-23T16:48:24.914Z,5.50
2022-09-23T16:50:57.038Z,4.20
2022-09-23T16:53:31.703Z,5.60
2022-09-23T16:56:09.504Z,5.60
2022-09-23T16:58:42.643Z,5.10
2022-09-23T17:01:36.368Z,7.50
2022-09-23T17:04:10.708Z,4.90
2022-09-23T17:06:50.364Z,5.30
2022-09-23T17:09:29.278Z,3.80
2022-09-23T17:12:12.543Z,3.70
2022-09-23T17:14:44.732Z,7.10
2022-09-23T17:17:17.058Z,6.20
2022-09-23T17:19:49.504Z,7.10
2022-09-23T17:22:21.640Z,6.40
2022-09-23T17:24:53.720Z,7.70
2022-09-23T17:27:26.080Z,5.20
2022-09-23T17:29:58.264Z,5.50
2022-09-23T17:32:30.846Z,5.90
2022-09-23T17:35:04.885Z,9.00
2022-09-23T17:37:37.118Z,6.60
2022-09-23T17:40:11.070Z,7.40
2022-09-23T17:42:44.763Z,7.00
2022-09-23T17:45:17.380Z,13.00
2022-09-23T17:47:52.428Z,9.70
2022-09-23T17:50:24.515Z,8.00
2022-09-23T17:52:56.988Z,8.90
2022-09-23T17:55:29.183Z,8.00
2022-09-23T17:58:01.682Z,6.20
2022-09-23T18:00:34.020Z,8.00
2022-09-23T18:03:06.639Z,7.10
2022-09-23T18:05:38.779Z,7.50
2022-09-23T18:08:10.852Z,8.70
2022-09-23T18:10:42.939Z,8.80
2022-09-23T18:13:15.180Z,8.10
2022-09-23T18:15:47.331Z,8.60
2022-09-23T18:18:19.850Z,10.70
2022-09-23T18:20:51.923Z,10.80
2022-09-23T18:23:26.074Z,10.90
2022-09-23T18:25:58.500Z,10.60
2022-09-23T18:28:34.989Z,10.90
2022-09-23T18:31:07.647Z,9.60
2022-09-23T18:33:40.284Z,7.70
2022-09-23T18:36:14.355Z,9.20
2022-09-23T18:38:47.285Z,7.60
2022-09-23T18:41:20.104Z,8.40
2022-09-23T18:43:53.284Z,8.10
2022-09-23T18:46:29.499Z,8.50
2022-09-23T18:49:19.683Z,11.50
2022-09-23T18:51:55.772Z,8.10
2022-09-23T18:54:31.609Z,10.10
2022-09-23T18:57:03.655Z,10.40
2022-09-23T18:59:36.273Z,13.00
2022-09-23T19:02:09.574Z,10.30
2022-09-23T19:04:41.795Z,11.20
2022-09-23T19:07:15.434Z,11.40
2022-09-23T19:09:47.827Z,9.10
2022-09-23T19:12:22.211Z,11.10
2022-09-23T19:14:54.929Z,14.20
2022-09-23T19:17:27.081Z,16.30
2022-09-23T19:19:59.219Z,12.00
2022-09-23T19:22:32.914Z,8.60
2022-09-23T19:25:05.436Z,11.30
2022-09-23T19:27:39.349Z,11.00
2022-09-23T19:30:13.728Z,9.30
2022-09-23T19:32:49.050Z,8.00
2022-09-23T19:35:21.774Z,12.50
2022-09-23T19:37:57.688Z,9.70
2022-09-23T19:40:30.774Z,8.60
2022-09-23T19:43:04.630Z,9.80
2022-09-23T19:45:38.597Z,9.90
2022-09-23T19:48:10.757Z,9.10
2022-09-23T19:50:43.132Z,9.80
2022-09-23T19:53:15.556Z,9.70
2022-09-23T19:55:49.690Z,10.10
2022-09-23T19:58:22.156Z,12.50
2022-09-23T20:00:54.360Z,13.70
2022-09-23T20:03:27.250Z,10.70
2022-09-23T20:06:00.063Z,11.20
2022-09-23T20:08:32.108Z,9.20
2022-09-23T20:11:11.661Z,11.10
2022-09-23T20:13:47.213Z,10.60
2022-09-23T20:16:21.031Z,13.40
2022-09-23T20:18:55.818Z,13.10
2022-09-23T20:21:29.425Z,10.30
2022-09-23T20:24:02.023Z,10.70
2022-09-23T20:26:51.701Z,22.20
2022-09-23T20:29:24.658Z,36.10
2022-09-23T20:31:58.714Z,17.60
2022-09-23T20:34:33.884Z,14.30
2022-09-23T20:37:06.174Z,12.30
2022-09-23T20:39:38.494Z,12.70
2022-09-23T20:42:10.528Z,10.60
2022-09-23T20:44:43.320Z,12.60
2022-09-23T20:47:17.054Z,12.60
2022-09-23T20:49:49.891Z,12.20
2022-09-23T20:52:23.026Z,14.00
2022-09-23T20:54:55.119Z,9.40
2022-09-23T20:57:29.517Z,11.50
2022-09-23T21:00:02.140Z,9.10
2022-09-23T21:02:34.527Z,13.10
2022-09-23T21:05:08.059Z,14.40
2022-09-23T21:07:40.283Z,12.30
2022-09-23T21:10:13.256Z,13.30
2022-09-23T21:12:46.175Z,11.90
2022-09-23T21:15:18.271Z,10.50
2022-09-23T21:17:50.338Z,12.80
2022-09-23T21:20:22.500Z,11.20
2022-09-23T21:22:55.384Z,11.30
2022-09-23T21:25:29.077Z,12.00
2022-09-23T21:28:02.391Z,8.00
2022-09-23T21:30:35.157Z,8.80
2022-09-23T21:33:07.503Z,11.90
2022-09-23T21:35:40.497Z,9.60
2022-09-23T21:38:12.588Z,8.30
2022-09-23T21:40:56.971Z,8.30
2022-09-23T21:43:33.713Z,9.10
2022-09-23T21:46:07.838Z,9.30
2022-09-23T21:48:41.975Z,11.70
2022-09-23T21:51:16.895Z,13.90
2022-09-23T21:53:50.222Z,14.70
2022-09-23T21:56:24.786Z,13.40
2022-09-23T21:58:58.350Z,18.00
2022-09-23T22:01:33.788Z,16.70
2022-09-23T22:04:10.534Z,21.60
2022-09-23T22:06:43.338Z,25.30
2022-09-23T22:09:17.554Z,25.20
2022-09-23T22:12:11.261Z,23.40
2022-09-23T22:14:43.590Z,25.30
2022-09-23T22:17:15.837Z,23.70
2022-09-23T22:19:47.887Z,25.00
2022-09-23T22:22:20.690Z,22.40
2022-09-23T22:24:53.192Z,25.10
2022-09-23T22:27:27.332Z,20.90
2022-09-23T22:30:17.015Z,23.30
2022-09-23T22:32:54.949Z,24.50
2022-09-23T22:35:27.355Z,22.60
2022-09-23T22:38:01.140Z,23.80
2022-09-23T22:40:33.312Z,19.30
2022-09-23T22:43:05.556Z,24.70
2022-09-23T22:45:37.730Z,24.60
2022-09-23T22:48:10.119Z,20.20
2022-09-23T22:50:43.062Z,20.70
2022-09-23T22:53:15.107Z,21.70
2022-09-23T22:55:57.671Z,19.00
2022-09-23T22:58:32.495Z,25.40
2022-09-23T23:01:05.549Z,20.60
2022-09-23T23:03:37.765Z,23.70
2022-09-23T23:06:11.287Z,19.40
2022-09-23T23:08:43.343Z,22.20
2022-09-23T23:11:15.502Z,21.90
2022-09-23T23:13:47.599Z,22.10
2022-09-23T23:16:21.526Z,24.30
2022-09-23T23:18:53.971Z,19.70
2022-09-23T23:21:26.312Z,20.90
2022-09-23T23:23:58.367Z,23.20
2022-09-23T23:26:32.118Z,22.70
2022-09-23T23:29:04.680Z,22.60
2022-09-23T23:31:36.842Z,25.90
2022-09-23T23:34:11.962Z,24.40
2022-09-23T23:36:44.361Z,22.80
2022-09-23T23:39:17.051Z,22.50
2022-09-23T23:41:49.419Z,24.50
2022-09-23T23:44:21.530Z,27.90
2022-09-23T23:46:53.769Z,26.10
2022-09-23T23:49:28.744Z,29.10
2022-09-23T23:52:00.806Z,29.70
2022-09-23T23:54:33.412Z,23.50
2022-09-23T23:57:05.461Z,25.30
2022-09-23T23:59:37.750Z,27.30
